Time;durP1;ratioP1;P1;durP2;ratioP2;P2;SDS_P1;SDS_P2;PMS_P1;PMS_P2;Temp;Humidity;BMP_temperature;BMP_pressure;BME280_temperature;BME280_humidity;BME280_pressure;Samples;Min_cycle;Max_cycle;Signal;HPM_P1;HPM_P2
2024/01/30 00:02:20;;;;;;;;;;;1.90;85.70;;;;;;5142396;27;19927;-60
2024/01/30 00:04:53;;;;;;;;;;;1.90;85.60;;;;;;5143125;27;19923;-61
2024/01/30 00:07:26;;;;;;;;;;;1.90;85.80;;;;;;5134720;27;19927;-62
2024/01/30 00:09:59;;;;;;;;;;;1.90;85.70;;;;;;5143465;27;19923;-61
2024/01/30 00:12:32;;;;;;;;;;;1.90;85.70;;;;;;5142940;27;19929;-61
2024/01/30 00:15:09;;;;;;;;;;;1.80;85.80;;;;;;5142469;27;19923;-62
2024/01/30 00:17:42;;;;;;;;;;;1.80;85.90;;;;;;5127942;27;19929;-61
2024/01/30 00:20:15;;;;;;;;;;;1.80;85.90;;;;;;5123430;27;19931;-62
2024/01/30 00:22:48;;;;;;;;;;;1.70;85.90;;;;;;5124840;27;19931;-62
2024/01/30 00:25:15;;;;;;;;;;;1.80;85.90;;;;;;5121384;27;19996;-61
2024/01/30 00:27:48;;;;;;;;;;;1.70;85.90;;;;;;5122330;27;19938;-63
2024/01/30 00:30:22;;;;;;;;;;;1.70;85.90;;;;;;5121730;27;19969;-62
2024/01/30 00:32:56;;;;;;;;;;;1.70;85.90;;;;;;5121926;27;19946;-61
2024/01/30 00:35:29;;;;;;;;;;;1.70;85.90;;;;;;5123067;27;20301;-62
2024/01/30 00:38:02;;;;;;;;;;;1.70;85.80;;;;;;5128850;27;19959;-64
2024/01/30 00:40:35;;;;;;;;;;;1.70;85.80;;;;;;5136326;27;19931;-63
2024/01/30 00:43:08;;;;;;;;;;;1.70;85.70;;;;;;5140593;27;19930;-62
2024/01/30 00:45:44;;;;;;;;;;;1.70;85.70;;;;;;5145222;27;20457;-62
2024/01/30 00:48:17;;;;;;;;;;;1.70;85.70;;;;;;5140100;27;19927;-62
2024/01/30 00:50:50;;;;;;;;;;;1.70;85.70;;;;;;5142229;27;20018;-62
2024/01/30 00:53:23;;;;;;;;;;;1.70;85.70;;;;;;5142793;27;19931;-62
2024/01/30 00:55:56;;;;;;;;;;;1.60;85.80;;;;;;5142118;27;19930;-61
2024/01/30 00:58:29;;;;;;;;;;;1.60;85.80;;;;;;5132908;27;19988;-62
2024/01/30 01:01:04;;;;;;;;;;;1.60;85.80;;;;;;5133120;27;19985;-64
2024/01/30 01:03:44;;;;;;;;;;;1.60;85.70;;;;;;5125122;27;19929;-61
2024/01/30 01:06:17;;;;;;;;;;;1.50;85.70;;;;;;5123746;27;19981;-62
2024/01/30 01:08:50;;;;;;;;;;;1.60;85.80;;;;;;5127898;27;19950;-62
2024/01/30 01:11:23;;;;;;;;;;;1.60;85.70;;;;;;5143152;27;19927;-61
2024/01/30 01:13:56;;;;;;;;;;;1.50;85.70;;;;;;5143366;27;20018;-62
2024/01/30 01:16:31;;;;;;;;;;;1.60;85.70;;;;;;5129734;27;20019;-61
2024/01/30 01:19:04;;;;;;;;;;;1.50;85.70;;;;;;5137929;27;19924;-62
2024/01/30 01:21:37;;;;;;;;;;;1.50;85.70;;;;;;5142710;27;19924;-65
2024/01/30 01:24:10;;;;;;;;;;;1.50;85.70;;;;;;5140621;27;19931;-64
2024/01/30 01:26:43;;;;;;;;;;;1.50;85.80;;;;;;5142841;27;19923;-63
2024/01/30 01:29:16;;;;;;;;;;;1.50;85.70;;;;;;5140467;27;19934;-63
2024/01/30 01:31:50;;;;;;;;;;;1.50;85.70;;;;;;5142269;27;20387;-64
2024/01/30 01:34:24;;;;;;;;;;;1.50;85.70;;;;;;5141071;27;19924;-63
2024/01/30 01:36:57;;;;;;;;;;;1.40;85.80;;;;;;5142941;27;20018;-63
2024/01/30 01:39:30;;;;;;;;;;;1.40;85.90;;;;;;5141905;27;19930;-64
2024/01/30 01:42:03;;;;;;;;;;;1.50;85.70;;;;;;5140461;27;20283;-64
2024/01/30 01:44:37;;;;;;;;;;;1.40;85.80;;;;;;5142324;27;20430;-62
2024/01/30 01:47:05;;;;;;;;;;;1.40;85.80;;;;;;5140599;27;19932;-64
2024/01/30 01:49:38;;;;;;;;;;;1.40;85.80;;;;;;5142232;27;19933;-62
2024/01/30 01:52:11;;;;;;;;;;;1.40;85.80;;;;;;5142175;27;19980;-62
2024/01/30 01:54:38;;;;;;;;;;;1.40;85.80;;;;;;5144368;27;19931;-63
2024/01/30 01:57:11;;;;;;;;;;;1.40;85.80;;;;;;5142311;27;20019;-63
2024/01/30 01:59:44;;;;;;;;;;;1.30;85.90;;;;;;5140134;27;19934;-62
2024/01/30 02:02:19;;;;;;;;;;;1.30;85.90;;;;;;5140480;27;19983;-64
2024/01/30 02:04:52;;;;;;;;;;;1.30;85.80;;;;;;5141481;27;19927;-63
2024/01/30 02:07:25;;;;;;;;;;;1.40;85.80;;;;;;5142207;27;19945;-62
2024/01/30 02:09:58;;;;;;;;;;;1.30;85.70;;;;;;5142023;27;19930;-64
2024/01/30 02:12:31;;;;;;;;;;;1.30;85.70;;;;;;5142181;27;20014;-64
2024/01/30 02:15:07;;;;;;;;;;;1.30;85.80;;;;;;5140212;27;19927;-64
2024/01/30 02:17:42;;;;;;;;;;;1.20;85.80;;;;;;5141294;27;19927;-64
2024/01/30 02:20:15;;;;;;;;;;;1.20;85.80;;;;;;5140246;27;20018;-63
2024/01/30 02:22:49;;;;;;;;;;;1.20;85.80;;;;;;5141799;27;20006;-63
2024/01/30 02:25:30;;;;;;;;;;;1.20;85.90;;;;;;5139758;27;19927;-63
2024/01/30 02:28:04;;;;;;;;;;;1.20;85.90;;;;;;5140457;27;19930;-62
2024/01/30 02:30:37;;;;;;;;;;;1.20;85.80;;;;;;5140497;27;19923;-65
2024/01/30 02:33:10;;;;;;;;;;;1.20;85.80;;;;;;5138950;27;19927;-67
2024/01/30 02:35:43;;;;;;;;;;;1.20;85.80;;;;;;5142431;27;19931;-66
2024/01/30 02:38:17;;;;;;;;;;;1.20;85.80;;;;;;5140830;27;19927;-66
2024/01/30 02:40:51;;;;;;;;;;;1.10;85.80;;;;;;5137066;27;20392;-67
2024/01/30 02:43:24;;;;;;;;;;;1.20;85.90;;;;;;5140695;27;19942;-66
2024/01/30 02:45:58;;;;;;;;;;;1.10;85.90;;;;;;5141354;27;19934;-67
2024/01/30 02:48:31;;;;;;;;;;;1.20;85.90;;;;;;5141999;27;20469;-66
2024/01/30 02:51:04;;;;;;;;;;;1.10;85.80;;;;;;5144112;27;20027;-66
2024/01/30 02:53:38;;;;;;;;;;;1.10;85.70;;;;;;5145622;27;20006;-65
2024/01/30 02:56:13;;;;;;;;;;;1.10;85.70;;;;;;5144572;27;19927;-67
2024/01/30 02:58:46;;;;;;;;;;;1.10;85.80;;;;;;5139304;27;20402;-65
2024/01/30 03:01:19;;;;;;;;;;;1.10;85.90;;;;;;5145370;27;20349;-66
2024/01/30 03:03:52;;;;;;;;;;;1.10;85.80;;;;;;5145422;27;19976;-67
2024/01/30 03:06:25;;;;;;;;;;;1.00;85.80;;;;;;5143691;27;19923;-67
2024/01/30 03:12:10;;;;;;;;;;;1.00;85.80;;;;;;5142623;27;20434;-67
2024/01/30 03:14:43;;;;;;;;;;;1.00;85.80;;;;;;5143845;27;20014;-66
2024/01/30 03:17:16;;;;;;;;;;;1.00;85.70;;;;;;5145860;27;20010;-66
2024/01/30 03:19:49;;;;;;;;;;;1.00;85.70;;;;;;5145217;27;19934;-67
2024/01/30 03:22:22;;;;;;;;;;;1.00;85.70;;;;;;5144071;27;20037;-67
2024/01/30 03:24:55;;;;;;;;;;;1.00;85.70;;;;;;5144982;27;19923;-67
2024/01/30 03:27:29;;;;;;;;;;;0.90;85.70;;;;;;5144059;27;19932;-66
2024/01/30 03:30:03;;;;;;;;;;;0.90;85.80;;;;;;5141253;27;20709;-66
2024/01/30 03:32:36;;;;;;;;;;;0.90;85.70;;;;;;5146371;27;20395;-67
2024/01/30 03:35:16;;;;;;;;;;;0.90;85.70;;;;;;5144889;27;19980;-67
2024/01/30 03:37:49;;;;;;;;;;;0.90;85.70;;;;;;5144084;27;19930;-66
2024/01/30 03:40:22;;;;;;;;;;;0.90;85.80;;;;;;5146321;27;19931;-65
2024/01/30 03:42:57;;;;;;;;;;;0.80;85.80;;;;;;5145301;27;20331;-66
2024/01/30 03:45:30;;;;;;;;;;;0.90;85.80;;;;;;5144552;27;19979;-65
2024/01/30 03:48:03;;;;;;;;;;;0.80;85.80;;;;;;5144037;27;20395;-66
2024/01/30 03:50:36;;;;;;;;;;;0.80;85.80;;;;;;5143834;27;20399;-67
2024/01/30 03:53:09;;;;;;;;;;;0.80;85.80;;;;;;5143371;27;19926;-66
2024/01/30 03:55:42;;;;;;;;;;;0.80;85.80;;;;;;5143180;27;19927;-67
2024/01/30 03:58:16;;;;;;;;;;;0.80;85.80;;;;;;5143607;27;19962;-66
2024/01/30 04:00:49;;;;;;;;;;;0.80;85.80;;;;;;5142556;27;20281;-65
2024/01/30 04:03:22;;;;;;;;;;;0.80;85.90;;;;;;5143646;27;19971;-66
2024/01/30 04:05:55;;;;;;;;;;;0.80;85.70;;;;;;5144439;27;19937;-66
2024/01/30 04:08:28;;;;;;;;;;;0.80;85.80;;;;;;5143480;27;19980;-66
2024/01/30 04:11:03;;;;;;;;;;;0.80;85.90;;;;;;5141152;27;19923;-66
2024/01/30 04:13:39;;;;;;;;;;;0.80;85.90;;;;;;5142197;27;20025;-66
2024/01/30 04:16:06;;;;;;;;;;;0.80;85.90;;;;;;5142485;27;19923;-66
2024/01/30 04:18:39;;;;;;;;;;;0.80;85.80;;;;;;5144864;27;19980;-67
2024/01/30 04:21:12;;;;;;;;;;;0.70;85.90;;;;;;5143447;27;20026;-67
2024/01/30 04:23:45;;;;;;;;;;;0.70;85.90;;;;;;5143406;27;20035;-66
2024/01/30 04:26:18;;;;;;;;;;;0.70;85.90;;;;;;5142675;27;19995;-67
2024/01/30 04:28:53;;;;;;;;;;;0.70;85.90;;;;;;5143885;27;20729;-67
2024/01/30 04:31:26;;;;;;;;;;;0.70;85.80;;;;;;5143479;27;19929;-66
2024/01/30 04:33:59;;;;;;;;;;;0.70;85.90;;;;;;5142830;27;19923;-67
2024/01/30 04:36:32;;;;;;;;;;;0.70;85.80;;;;;;5142448;27;19929;-66
2024/01/30 04:39:05;;;;;;;;;;;0.70;85.90;;;;;;5142606;27;20366;-66
2024/01/30 04:41:38;;;;;;;;;;;0.70;85.90;;;;;;5143492;27;19974;-67
2024/01/30 04:44:13;;;;;;;;;;;0.70;85.90;;;;;;5142489;27;19930;-65
2024/01/30 04:46:46;;;;;;;;;;;0.70;85.90;;;;;;5143378;27;20289;-66
2024/01/30 04:49:19;;;;;;;;;;;0.70;85.90;;;;;;5137486;27;20038;-66
2024/01/30 04:51:52;;;;;;;;;;;0.70;85.80;;;;;;5143962;27;20566;-63
2024/01/30 04:54:25;;;;;;;;;;;0.70;85.80;;;;;;5140772;27;19927;-63
2024/01/30 04:56:58;;;;;;;;;;;0.70;85.90;;;;;;5142247;27;19977;-61
2024/01/30 04:59:26;;;;;;;;;;;0.60;86.00;;;;;;5142966;27;19934;-63
2024/01/30 05:01:59;;;;;;;;;;;0.70;85.90;;;;;;5141191;27;20008;-62
2024/01/30 05:04:32;;;;;;;;;;;0.60;85.90;;;;;;5138894;27;20374;-61
2024/01/30 05:06:59;;;;;;;;;;;0.60;85.90;;;;;;5130652;27;19927;-63
2024/01/30 05:09:32;;;;;;;;;;;0.60;85.90;;;;;;5141261;27;19930;-63
2024/01/30 05:12:05;;;;;;;;;;;0.60;85.90;;;;;;5141908;27;19931;-62
2024/01/30 05:14:40;;;;;;;;;;;0.60;85.90;;;;;;5130982;27;20434;-63
2024/01/30 05:17:13;;;;;;;;;;;0.60;86.00;;;;;;5131853;27;19934;-62
2024/01/30 05:19:46;;;;;;;;;;;0.70;85.90;;;;;;5141864;27;20026;-62
2024/01/30 05:22:19;;;;;;;;;;;0.60;85.90;;;;;;5142282;27;20014;-63
2024/01/30 05:24:52;;;;;;;;;;;0.60;85.90;;;;;;5142645;27;20388;-63
2024/01/30 05:27:25;;;;;;;;;;;0.60;86.00;;;;;;5137485;27;19980;-62
2024/01/30 05:30:00;;;;;;;;;;;0.60;85.90;;;;;;5122306;27;19969;-60
2024/01/30 05:32:33;;;;;;;;;;;0.60;86.00;;;;;;5135595;27;19930;-63
2024/01/30 05:35:07;;;;;;;;;;;0.60;86.00;;;;;;5121202;27;19950;-63
2024/01/30 05:37:40;;;;;;;;;;;0.60;86.10;;;;;;5121716;27;20446;-62
2024/01/30 05:40:14;;;;;;;;;;;0.50;86.00;;;;;;5122596;27;19980;-63
2024/01/30 05:42:40;;;;;;;;;;;0.50;86.10;;;;;;5120804;27;20815;-63
2024/01/30 05:45:15;;;;;;;;;;;0.50;86.10;;;;;;5120405;27;20018;-64
2024/01/30 05:47:48;;;;;;;;;;;0.50;86.10;;;;;;5119336;27;19928;-63
2024/01/30 05:50:23;;;;;;;;;;;0.50;86.10;;;;;;5121389;27;20018;-63
2024/01/30 05:52:56;;;;;;;;;;;0.50;86.10;;;;;;5121583;27;19923;-63
2024/01/30 05:55:29;;;;;;;;;;;0.60;86.00;;;;;;5141554;27;19930;-64
2024/01/30 05:58:02;;;;;;;;;;;0.50;86.00;;;;;;5141666;27;19933;-62
2024/01/30 06:00:37;;;;;;;;;;;0.50;86.00;;;;;;5142260;27;19923;-75
2024/01/30 06:03:10;;;;;;;;;;;0.50;86.00;;;;;;5142524;27;19954;-74
2024/01/30 06:05:43;;;;;;;;;;;0.50;86.10;;;;;;5141429;27;19927;-74
2024/01/30 06:08:16;;;;;;;;;;;0.50;86.10;;;;;;5141576;27;19933;-75
2024/01/30 06:10:49;;;;;;;;;;;0.50;86.10;;;;;;5141699;27;19949;-72
2024/01/30 06:13:22;;;;;;;;;;;0.50;86.00;;;;;;5140286;27;20444;-74
2024/01/30 06:15:57;;;;;;;;;;;0.50;86.10;;;;;;5142876;27;19927;-76
2024/01/30 06:18:31;;;;;;;;;;;0.50;86.00;;;;;;5138855;27;19923;-74
2024/01/30 06:21:05;;;;;;;;;;;0.50;86.00;;;;;;5139889;27;19934;-75
2024/01/30 06:23:38;;;;;;;;;;;0.40;86.10;;;;;;5141952;27;19930;-74
2024/01/30 06:26:11;;;;;;;;;;;0.40;86.10;;;;;;5141216;27;19930;-74
2024/01/30 06:28:44;;;;;;;;;;;0.40;86.10;;;;;;5141882;27;19927;-74
2024/01/30 06:31:19;;;;;;;;;;;0.40;86.00;;;;;;5140332;27;20397;-74
2024/01/30 06:33:53;;;;;;;;;;;0.40;86.10;;;;;;5142134;27;19927;-72
2024/01/30 06:36:19;;;;;;;;;;;0.40;86.10;;;;;;5138968;27;19934;-73
2024/01/30 06:38:52;;;;;;;;;;;0.50;86.10;;;;;;5142256;27;19927;-74
2024/01/30 06:41:25;;;;;;;;;;;0.40;86.20;;;;;;5141511;27;19923;-74
2024/01/30 06:43:58;;;;;;;;;;;0.40;86.20;;;;;;5142627;27;19934;-74
2024/01/30 06:46:33;;;;;;;;;;;0.40;86.20;;;;;;5137934;27;19928;-74
2024/01/30 06:49:06;;;;;;;;;;;0.40;86.20;;;;;;5144355;27;19923;-74
2024/01/30 06:51:39;;;;;;;;;;;0.50;86.20;;;;;;5143532;27;19927;-73
2024/01/30 06:54:12;;;;;;;;;;;0.50;86.30;;;;;;5140816;27;19930;-75
2024/01/30 06:56:45;;;;;;;;;;;0.50;86.20;;;;;;5141658;27;19948;-75
2024/01/30 06:59:12;;;;;;;;;;;0.40;86.30;;;;;;5140422;27;19923;-73
2024/01/30 07:01:47;;;;;;;;;;;0.50;86.40;;;;;;5140494;27;19930;-72
2024/01/30 07:04:31;;;;;;;;;;;0.50;86.30;;;;;;5140616;27;19927;-75
2024/01/30 07:07:15;;;;;;;;;;;0.40;86.30;;;;;;5132269;27;19930;-72
2024/01/30 07:09:52;;;;;;;;;;;0.50;86.30;;;;;;5143581;27;19952;-61
2024/01/30 07:12:26;;;;;;;;;;;0.50;86.30;;;;;;5140779;27;19927;-61
2024/01/30 07:14:59;;;;;;;;;;;0.40;86.30;;;;;;5139717;27;20022;-62
2024/01/30 07:17:34;;;;;;;;;;;0.50;86.30;;;;;;5137303;27;19988;-61
2024/01/30 07:20:09;;;;;;;;;;;0.50;86.30;;;;;;5140794;27;20429;-61
2024/01/30 07:22:42;;;;;;;;;;;0.50;86.30;;;;;;5141405;27;19979;-62
2024/01/30 07:25:16;;;;;;;;;;;0.50;86.30;;;;;;5140354;27;20398;-61
2024/01/30 07:27:49;;;;;;;;;;;0.50;86.30;;;;;;5138211;27;19988;-62
2024/01/30 07:30:17;;;;;;;;;;;0.50;86.30;;;;;;5139276;27;19923;-62
2024/01/30 07:32:52;;;;;;;;;;;0.50;86.40;;;;;;5140796;27;19927;-61
2024/01/30 07:35:24;;;;;;;;;;;0.50;86.50;;;;;;5139907;27;20378;-61
2024/01/30 07:37:57;;;;;;;;;;;0.60;86.50;;;;;;5142729;27;19923;-61
2024/01/30 07:40:24;;;;;;;;;;;0.60;86.50;;;;;;5144363;27;19930;-61
2024/01/30 07:42:57;;;;;;;;;;;0.60;86.60;;;;;;5144804;27;20358;-60
2024/01/30 07:45:32;;;;;;;;;;;0.60;86.60;;;;;;5145308;27;20298;-61
2024/01/30 07:48:07;;;;;;;;;;;0.60;86.60;;;;;;5145072;27;19927;-60
2024/01/30 07:50:40;;;;;;;;;;;0.60;86.60;;;;;;5144415;27;19977;-62
2024/01/30 07:53:15;;;;;;;;;;;0.70;86.60;;;;;;5140297;27;19950;-61
2024/01/30 07:55:47;;;;;;;;;;;0.70;86.60;;;;;;5142723;27;20006;-61
2024/01/30 07:58:14;;;;;;;;;;;0.70;86.60;;;;;;5143391;27;19999;-62
2024/01/30 08:00:47;;;;;;;;;;;0.70;86.60;;;;;;5144736;27;19947;-61
2024/01/30 08:03:22;;;;;;;;;;;0.70;86.80;;;;;;5145290;27;19973;-62
2024/01/30 08:05:55;;;;;;;;;;;0.70;86.80;;;;;;5143532;27;20008;-62
2024/01/30 08:08:28;;;;;;;;;;;0.70;86.70;;;;;;5141742;27;19923;-62
2024/01/30 08:11:08;;;;;;;;;;;0.80;86.70;;;;;;5129822;27;19929;-62
2024/01/30 08:13:41;;;;;;;;;;;0.80;86.70;;;;;;5140827;27;19927;-62
2024/01/30 08:19:51;;;;;;;;;;;0.90;86.80;;;;;;5139343;27;19954;-64
2024/01/30 08:22:24;;;;;;;;;;;0.90;86.80;;;;;;5142602;27;19946;-66
2024/01/30 08:24:57;;;;;;;;;;;0.90;86.80;;;;;;5145175;27;19945;-63
2024/01/30 08:27:30;;;;;;;;;;;0.90;86.90;;;;;;5139418;27;19979;-66
2024/01/30 08:30:04;;;;;;;;;;;1.00;87.00;;;;;;5142244;27;19931;-65
2024/01/30 08:32:37;;;;;;;;;;;1.00;87.00;;;;;;5143531;27;19923;-65
2024/01/30 08:35:13;;;;;;;;;;;1.00;87.20;;;;;;5142161;27;19938;-63
2024/01/30 08:37:46;;;;;;;;;;;1.10;87.20;;;;;;5142190;27;19923;-64
2024/01/30 08:40:26;;;;;;;;;;;1.10;87.20;;;;;;5142509;27;19927;-65
2024/01/30 08:42:59;;;;;;;;;;;1.20;87.00;;;;;;5143321;27;19977;-66
2024/01/30 08:45:32;;;;;;;;;;;1.20;87.10;;;;;;5143035;27;19933;-69
2024/01/30 08:48:06;;;;;;;;;;;1.30;87.40;;;;;;5143346;27;19924;-66
2024/01/30 08:50:40;;;;;;;;;;;1.30;87.30;;;;;;5144849;27;20018;-67
2024/01/30 08:53:13;;;;;;;;;;;1.30;87.50;;;;;;5142744;27;19934;-65
2024/01/30 08:55:46;;;;;;;;;;;1.40;87.20;;;;;;5142057;27;19961;-66
2024/01/30 08:58:19;;;;;;;;;;;1.40;87.60;;;;;;5140140;27;20046;-66
2024/01/30 09:00:53;;;;;;;;;;;1.50;87.20;;;;;;5138483;27;19923;-66
2024/01/30 09:03:25;;;;;;;;;;;1.50;87.50;;;;;;5138465;27;19946;-66
2024/01/30 09:06:00;;;;;;;;;;;1.60;87.50;;;;;;5139877;27;20007;-66
2024/01/30 09:08:33;;;;;;;;;;;1.70;87.50;;;;;;5130020;27;19927;-65
2024/01/30 09:11:09;;;;;;;;;;;1.70;87.30;;;;;;5117475;27;19927;-67
2024/01/30 09:13:43;;;;;;;;;;;1.70;87.40;;;;;;5125914;27;20019;-65
2024/01/30 09:16:16;;;;;;;;;;;1.80;87.40;;;;;;5124354;27;19924;-65
2024/01/30 09:18:49;;;;;;;;;;;1.90;87.30;;;;;;5130693;27;19988;-65
2024/01/30 09:21:24;;;;;;;;;;;1.90;87.40;;;;;;5141284;27;20485;-65
2024/01/30 09:24:02;;;;;;;;;;;2.00;87.40;;;;;;5143767;27;19931;-65
2024/01/30 09:26:35;;;;;;;;;;;2.10;87.30;;;;;;5139940;27;20014;-65
2024/01/30 09:29:08;;;;;;;;;;;2.10;87.20;;;;;;5139832;27;19973;-64
2024/01/30 09:31:50;;;;;;;;;;;2.10;87.40;;;;;;5142883;27;19929;-74
2024/01/30 09:34:23;;;;;;;;;;;2.20;87.50;;;;;;5132601;27;20393;-74
2024/01/30 09:36:58;;;;;;;;;;;2.20;87.30;;;;;;5126007;27;20026;-74
2024/01/30 09:39:31;;;;;;;;;;;2.20;87.70;;;;;;5134898;27;19931;-74
2024/01/30 09:42:07;;;;;;;;;;;2.30;87.60;;;;;;5143115;27;19923;-74
2024/01/30 09:44:42;;;;;;;;;;;2.40;87.50;;;;;;5129854;27;20471;-72
2024/01/30 09:47:16;;;;;;;;;;;2.50;87.40;;;;;;5122546;27;19928;-73
2024/01/30 09:49:49;;;;;;;;;;;2.60;87.20;;;;;;5134925;27;19972;-74
2024/01/30 09:52:24;;;;;;;;;;;2.60;87.40;;;;;;5141325;27;20029;-74
2024/01/30 09:55:00;;;;;;;;;;;2.70;87.40;;;;;;5133989;27;19928;-74
2024/01/30 09:57:33;;;;;;;;;;;2.70;87.30;;;;;;5141601;27;19928;-74
2024/01/30 10:00:08;;;;;;;;;;;2.70;87.40;;;;;;5140991;27;19923;-74
2024/01/30 10:02:42;;;;;;;;;;;2.80;87.40;;;;;;5143201;27;19923;-74
2024/01/30 10:05:17;;;;;;;;;;;2.90;87.30;;;;;;5140628;27;20010;-73
2024/01/30 10:07:53;;;;;;;;;;;3.00;87.30;;;;;;5141304;27;19934;-75
2024/01/30 10:10:20;;;;;;;;;;;3.00;87.30;;;;;;5140447;27;19927;-73
2024/01/30 10:12:53;;;;;;;;;;;3.10;87.30;;;;;;5143695;27;19927;-74
2024/01/30 10:15:20;;;;;;;;;;;3.10;87.40;;;;;;5140606;27;19927;-75
2024/01/30 10:17:52;;;;;;;;;;;3.20;87.30;;;;;;5141021;27;19924;-74
2024/01/30 10:20:26;;;;;;;;;;;3.30;87.20;;;;;;5141041;27;20011;-72
2024/01/30 10:22:54;;;;;;;;;;;3.30;87.40;;;;;;5142034;27;19954;-73
2024/01/30 10:25:27;;;;;;;;;;;3.40;87.40;;;;;;5139731;27;19923;-75
2024/01/30 10:28:00;;;;;;;;;;;3.50;87.30;;;;;;5142685;27;19930;-74
2024/01/30 10:30:32;;;;;;;;;;;3.60;87.00;;;;;;5141751;27;19942;-73
2024/01/30 10:33:05;;;;;;;;;;;3.60;87.10;;;;;;5141388;27;20401;-74
2024/01/30 10:35:38;;;;;;;;;;;3.70;87.00;;;;;;5140977;27;19945;-73
2024/01/30 10:38:16;;;;;;;;;;;3.80;87.00;;;;;;5139919;27;19951;-73
2024/01/30 10:40:52;;;;;;;;;;;3.90;86.90;;;;;;5141444;27;19934;-66
2024/01/30 10:43:29;;;;;;;;;;;4.00;87.00;;;;;;5140494;27;19939;-67
2024/01/30 10:46:14;;;;;;;;;;;4.00;86.90;;;;;;5140991;27;19927;-64
2024/01/30 10:48:49;;;;;;;;;;;4.10;86.80;;;;;;5142094;27;20026;-64
2024/01/30 10:51:23;;;;;;;;;;;4.20;86.40;;;;;;5140547;27;20265;-65
2024/01/30 10:53:57;;;;;;;;;;;4.20;86.20;;;;;;5142421;27;19934;-66
2024/01/30 10:56:33;;;;;;;;;;;4.20;86.50;;;;;;5140404;27;19931;-64
2024/01/30 10:59:06;;;;;;;;;;;4.20;87.00;;;;;;5140445;27;19923;-66
2024/01/30 11:01:40;;;;;;;;;;;4.30;86.60;;;;;;5140441;27;19929;-64
2024/01/30 11:04:13;;;;;;;;;;;4.30;86.70;;;;;;5141374;27;20026;-64
2024/01/30 11:06:50;;;;;;;;;;;4.40;87.00;;;;;;5140927;27;19927;-65
2024/01/30 11:09:24;;;;;;;;;;;4.40;86.60;;;;;;5139031;27;19923;-65
2024/01/30 11:11:59;;;;;;;;;;;4.40;86.40;;;;;;5142902;27;19950;-65
2024/01/30 11:14:33;;;;;;;;;;;4.50;86.30;;;;;;5144222;27;20294;-64
2024/01/30 11:17:05;;;;;;;;;;;4.50;86.30;;;;;;5144617;27;19984;-65
2024/01/30 11:19:38;;;;;;;;;;;4.60;86.40;;;;;;5145074;27;19927;-67
2024/01/30 11:22:12;;;;;;;;;;;4.60;86.80;;;;;;5144262;27;19927;-64
2024/01/30 11:24:47;;;;;;;;;;;4.70;86.80;;;;;;5144034;27;19927;-64
2024/01/30 11:27:21;;;;;;;;;;;4.70;86.30;;;;;;5145100;27;19927;-65
2024/01/30 11:29:53;;;;;;;;;;;4.70;86.50;;;;;;5144628;27;19940;-66
2024/01/30 11:32:27;;;;;;;;;;;4.80;86.00;;;;;;5146212;27;19923;-65
2024/01/30 11:34:59;;;;;;;;;;;4.80;85.80;;;;;;5144601;27;19924;-64
2024/01/30 11:37:33;;;;;;;;;;;4.90;85.70;;;;;;5143884;27;19927;-65
2024/01/30 11:40:08;;;;;;;;;;;5.00;85.70;;;;;;5145134;27;20010;-65
2024/01/30 11:42:42;;;;;;;;;;;5.00;85.60;;;;;;5143433;27;19931;-65
2024/01/30 11:45:16;;;;;;;;;;;5.10;85.50;;;;;;5144393;27;19927;-66
2024/01/30 11:47:49;;;;;;;;;;;5.10;85.30;;;;;;5144225;27;20010;-65
2024/01/30 11:50:22;;;;;;;;;;;5.20;85.30;;;;;;5144313;27;19932;-64
2024/01/30 11:52:55;;;;;;;;;;;5.20;85.20;;;;;;5143310;27;19934;-66
2024/01/30 11:55:29;;;;;;;;;;;5.20;85.20;;;;;;5145651;27;19935;-66
2024/01/30 11:58:04;;;;;;;;;;;5.30;85.90;;;;;;5126952;27;19979;-66
2024/01/30 12:00:36;;;;;;;;;;;5.30;85.70;;;;;;5130205;27;19985;-65
2024/01/30 12:03:12;;;;;;;;;;;5.40;85.90;;;;;;5144505;27;19927;-65
2024/01/30 12:05:44;;;;;;;;;;;5.40;85.70;;;;;;5142323;27;20401;-66
2024/01/30 12:08:17;;;;;;;;;;;5.40;85.10;;;;;;5145136;27;20307;-65
2024/01/30 12:10:58;;;;;;;;;;;5.50;85.10;;;;;;5144002;27;19925;-65
2024/01/30 12:13:31;;;;;;;;;;;5.60;85.10;;;;;;5143442;27;19931;-65
2024/01/30 12:16:04;;;;;;;;;;;5.60;85.60;;;;;;5143266;27;20245;-66
2024/01/30 12:18:36;;;;;;;;;;;5.70;85.50;;;;;;5142415;27;20346;-65
2024/01/30 12:21:09;;;;;;;;;;;5.70;84.80;;;;;;5144039;27;20323;-64
2024/01/30 12:23:42;;;;;;;;;;;5.70;85.40;;;;;;5141538;27;19927;-66
2024/01/30 12:26:17;;;;;;;;;;;5.70;85.30;;;;;;5144354;27;19945;-66
2024/01/30 12:28:51;;;;;;;;;;;5.80;85.00;;;;;;5143912;27;19926;-65
2024/01/30 12:31:33;;;;;;;;;;;5.80;84.90;;;;;;5143086;27;19926;-65
2024/01/30 12:34:05;;;;;;;;;;;5.90;84.70;;;;;;5143283;27;19983;-66
2024/01/30 12:36:38;;;;;;;;;;;5.90;84.60;;;;;;5141913;27;19937;-67
2024/01/30 12:39:12;;;;;;;;;;;6.00;84.70;;;;;;5143979;27;19931;-66
2024/01/30 12:41:40;;;;;;;;;;;6.00;84.50;;;;;;5141705;27;20250;-67
2024/01/30 12:44:14;;;;;;;;;;;6.00;84.70;;;;;;5144113;27;19923;-67
2024/01/30 12:46:48;;;;;;;;;;;6.10;84.90;;;;;;5138846;27;19938;-66
2024/01/30 12:49:21;;;;;;;;;;;6.10;84.80;;;;;;5143583;27;19938;-66
2024/01/30 12:51:55;;;;;;;;;;;6.10;84.20;;;;;;5143436;27;19923;-66
2024/01/30 12:54:28;;;;;;;;;;;6.20;84.50;;;;;;5143683;27;19969;-64
2024/01/30 12:57:02;;;;;;;;;;;6.20;84.40;;;;;;5125238;27;20298;-65
2024/01/30 12:59:35;;;;;;;;;;;6.30;85.20;;;;;;5146353;27;19979;-65
2024/01/30 13:02:08;;;;;;;;;;;6.30;84.90;;;;;;5142891;27;19961;-61
2024/01/30 13:04:42;;;;;;;;;;;6.30;84.40;;;;;;5142915;27;20562;-62
2024/01/30 13:07:15;;;;;;;;;;;6.40;84.60;;;;;;5142519;27;19950;-62
2024/01/30 13:09:48;;;;;;;;;;;6.40;84.30;;;;;;5142288;27;19975;-61
2024/01/30 13:12:22;;;;;;;;;;;6.50;85.50;;;;;;5140613;27;19999;-61
2024/01/30 13:14:55;;;;;;;;;;;6.50;85.00;;;;;;5136854;27;19931;-61
2024/01/30 13:17:23;;;;;;;;;;;6.60;84.80;;;;;;5141535;27;20393;-62
2024/01/30 13:19:55;;;;;;;;;;;6.60;84.80;;;;;;5141551;27;20022;-60
2024/01/30 13:22:28;;;;;;;;;;;6.70;85.00;;;;;;5141277;27;20366;-62
2024/01/30 13:25:01;;;;;;;;;;;6.70;85.10;;;;;;5141052;27;20642;-61
2024/01/30 13:27:36;;;;;;;;;;;6.70;84.70;;;;;;5139405;27;20011;-60
2024/01/30 13:30:10;;;;;;;;;;;6.80;85.30;;;;;;5142133;27;20461;-62
2024/01/30 13:32:44;;;;;;;;;;;6.80;85.40;;;;;;5141597;27;19934;-62
2024/01/30 13:35:17;;;;;;;;;;;6.80;85.50;;;;;;5142664;27;20369;-61
2024/01/30 13:37:49;;;;;;;;;;;6.80;85.10;;;;;;5134276;27;20296;-64
2024/01/30 13:40:23;;;;;;;;;;;6.90;85.70;;;;;;5141119;27;19978;-62
2024/01/30 13:42:51;;;;;;;;;;;6.90;85.50;;;;;;5140857;27;20435;-61
2024/01/30 13:45:23;;;;;;;;;;;6.90;85.20;;;;;;5139974;27;20013;-61
2024/01/30 13:47:57;;;;;;;;;;;6.90;85.10;;;;;;5141710;27;19936;-61
2024/01/30 13:50:33;;;;;;;;;;;7.00;85.60;;;;;;5139919;27;20059;-62
2024/01/30 13:53:06;;;;;;;;;;;7.00;85.50;;;;;;5140560;27;19943;-62
2024/01/30 13:55:39;;;;;;;;;;;7.00;85.60;;;;;;5138797;27;19930;-61
2024/01/30 13:58:14;;;;;;;;;;;7.10;85.20;;;;;;5143370;27;19927;-62
2024/01/30 14:00:49;;;;;;;;;;;7.10;84.80;;;;;;5139589;27;19938;-61
2024/01/30 14:03:15;;;;;;;;;;;7.10;85.20;;;;;;5135945;27;19924;-61
2024/01/30 14:06:03;;;;;;;;;;;7.10;85.80;;;;;;5139789;27;20220;-61
2024/01/30 14:08:43;;;;;;;;;;;7.20;85.50;;;;;;5140639;27;20281;-62
2024/01/30 14:11:16;;;;;;;;;;;7.10;85.60;;;;;;5141355;27;19923;-63
2024/01/30 14:13:52;;;;;;;;;;;7.10;85.30;;;;;;5138455;27;19959;-62
2024/01/30 14:16:19;;;;;;;;;;;7.10;85.60;;;;;;5143085;27;19938;-62
2024/01/30 14:18:52;;;;;;;;;;;7.20;85.80;;;;;;5139894;27;19927;-62
2024/01/30 14:21:26;;;;;;;;;;;7.20;85.60;;;;;;5140542;27;19939;-62
2024/01/30 14:23:58;;;;;;;;;;;7.20;85.80;;;;;;5140693;27;19933;-61
2024/01/30 14:26:32;;;;;;;;;;;7.20;85.50;;;;;;5135565;27;20006;-63
2024/01/30 14:29:06;;;;;;;;;;;7.20;85.40;;;;;;5139886;27;19935;-61
2024/01/30 14:31:40;;;;;;;;;;;7.20;85.50;;;;;;5140746;27;20018;-62
2024/01/30 14:34:12;;;;;;;;;;;7.20;86.00;;;;;;5139830;27;20373;-62
2024/01/30 14:36:46;;;;;;;;;;;7.20;85.50;;;;;;5139515;27;20541;-63
2024/01/30 14:39:19;;;;;;;;;;;7.20;86.00;;;;;;5141489;27;19927;-63
2024/01/30 14:41:52;;;;;;;;;;;7.20;85.60;;;;;;5138714;27;19934;-63
2024/01/30 14:44:26;;;;;;;;;;;7.20;85.90;;;;;;5139170;27;19934;-61
2024/01/30 14:47:00;;;;;;;;;;;7.20;85.80;;;;;;5143898;27;19975;-62
2024/01/30 14:49:33;;;;;;;;;;;7.20;86.10;;;;;;5144031;27;19924;-62
2024/01/30 14:52:06;;;;;;;;;;;7.20;85.80;;;;;;5145382;27;20004;-61
2024/01/30 14:54:39;;;;;;;;;;;7.20;85.60;;;;;;5145136;27;19928;-62
2024/01/30 14:57:05;;;;;;;;;;;7.20;86.00;;;;;;5145761;27;19938;-62
2024/01/30 14:59:40;;;;;;;;;;;7.20;86.00;;;;;;5145162;27;19923;-62
2024/01/30 15:02:07;;;;;;;;;;;7.20;86.10;;;;;;5144322;27;20296;-63
2024/01/30 15:04:41;;;;;;;;;;;7.20;86.00;;;;;;5146091;27;19942;-63
2024/01/30 15:07:14;;;;;;;;;;;7.20;86.00;;;;;;5145752;27;19927;-63
2024/01/30 15:09:47;;;;;;;;;;;7.20;86.00;;;;;;5144643;27;19931;-63
2024/01/30 15:12:20;;;;;;;;;;;7.20;86.40;;;;;;5144254;27;20416;-62
2024/01/30 15:14:54;;;;;;;;;;;7.20;86.10;;;;;;5144762;27;20293;-61